sensor_id;sensor_type;location;lat;lon;timestamp;P1;durP1;ratioP1;P2;durP2;ratioP2
37831;SDS011;23671;38.090;-122.570;2023-03-25T00:00:08;4.60;;;1.02;;
37831;SDS011;23671;38.090;-122.570;2023-03-25T00:02:42;8.15;;;1.40;;
37831;SDS011;23671;38.090;-122.570;2023-03-25T00:05:10;8.40;;;1.20;;
37831;SDS011;23671;38.090;-122.570;2023-03-25T00:07:42;4.97;;;1.35;;
37831;SDS011;23671;38.090;-122.570;2023-03-25T00:10:10;6.20;;;1.20;;
37831;SDS011;23671;38.090;-122.570;2023-03-25T00:12:38;4.97;;;1.20;;
37831;SDS011;23671;38.090;-122.570;2023-03-25T00:15:07;5.63;;;1.33;;
37831;SDS011;23671;38.090;-122.570;2023-03-25T00:17:35;6.38;;;1.10;;
37831;SDS011;23671;38.090;-122.570;2023-03-25T00:20:03;5.00;;;1.08;;
37831;SDS011;23671;38.090;-122.570;2023-03-25T00:22:33;5.53;;;1.38;;
37831;SDS011;23671;38.090;-122.570;2023-03-25T00:25:09;6.13;;;1.40;;
37831;SDS011;23671;38.090;-122.570;2023-03-25T00:27:41;5.72;;;1.38;;
37831;SDS011;23671;38.090;-122.570;2023-03-25T00:32:37;3.80;;;0.85;;
37831;SDS011;23671;38.090;-122.570;2023-03-25T00:35:04;2.05;;;0.93;;
37831;SDS011;23671;38.090;-122.570;2023-03-25T00:37:32;6.20;;;1.80;;
37831;SDS011;23671;38.090;-122.570;2023-03-25T00:40:00;7.15;;;1.50;;
37831;SDS011;23671;38.090;-122.570;2023-03-25T00:42:27;5.10;;;1.10;;
37831;SDS011;23671;38.090;-122.570;2023-03-25T00:44:54;3.80;;;0.93;;
37831;SDS011;23671;38.090;-122.570;2023-03-25T00:47:22;5.47;;;1.20;;
37831;SDS011;23671;38.090;-122.570;2023-03-25T00:49:49;5.47;;;1.05;;
37831;SDS011;23671;38.090;-122.570;2023-03-25T00:52:17;4.32;;;1.10;;
37831;SDS011;23671;38.090;-122.570;2023-03-25T00:54:47;4.22;;;0.80;;
37831;SDS011;23671;38.090;-122.570;2023-03-25T00:57:15;4.45;;;1.05;;
37831;SDS011;23671;38.090;-122.570;2023-03-25T00:59:42;5.07;;;0.88;;
37831;SDS011;23671;38.090;-122.570;2023-03-25T01:02:09;2.55;;;1.10;;
37831;SDS011;23671;38.090;-122.570;2023-03-25T01:04:36;4.45;;;1.10;;
37831;SDS011;23671;38.090;-122.570;2023-03-25T01:07:04;6.00;;;1.23;;
37831;SDS011;23671;38.090;-122.570;2023-03-25T01:09:32;7.45;;;1.30;;
37831;SDS011;23671;38.090;-122.570;2023-03-25T01:11:59;6.03;;;1.10;;
37831;SDS011;23671;38.090;-122.570;2023-03-25T01:14:26;3.92;;;1.00;;
37831;SDS011;23671;38.090;-122.570;2023-03-25T01:16:53;4.35;;;1.13;;
37831;SDS011;23671;38.090;-122.570;2023-03-25T01:19:23;4.85;;;0.95;;
37831;SDS011;23671;38.090;-122.570;2023-03-25T01:21:52;6.13;;;1.20;;
37831;SDS011;23671;38.090;-122.570;2023-03-25T01:24:19;5.25;;;1.02;;
37831;SDS011;23671;38.090;-122.570;2023-03-25T01:26:46;4.80;;;1.10;;
37831;SDS011;23671;38.090;-122.570;2023-03-25T01:29:17;4.97;;;1.42;;
37831;SDS011;23671;38.090;-122.570;2023-03-25T01:31:46;4.10;;;1.35;;
37831;SDS011;23671;38.090;-122.570;2023-03-25T01:34:13;3.33;;;0.90;;
37831;SDS011;23671;38.090;-122.570;2023-03-25T01:36:41;3.90;;;0.98;;
37831;SDS011;23671;38.090;-122.570;2023-03-25T01:39:11;3.13;;;1.08;;
37831;SDS011;23671;38.090;-122.570;2023-03-25T01:41:41;3.35;;;1.13;;
37831;SDS011;23671;38.090;-122.570;2023-03-25T01:45:09;4.60;;;0.88;;
37831;SDS011;23671;38.090;-122.570;2023-03-25T01:46:57;5.97;;;1.50;;
37831;SDS011;23671;38.090;-122.570;2023-03-25T01:49:38;5.13;;;1.10;;
37831;SDS011;23671;38.090;-122.570;2023-03-25T01:52:15;4.57;;;0.90;;
37831;SDS011;23671;38.090;-122.570;2023-03-25T01:54:49;6.85;;;1.10;;
37831;SDS011;23671;38.090;-122.570;2023-03-25T01:57:18;4.22;;;0.90;;
37831;SDS011;23671;38.090;-122.570;2023-03-25T01:59:46;5.32;;;1.25;;
37831;SDS011;23671;38.090;-122.570;2023-03-25T02:02:15;4.47;;;1.00;;
37831;SDS011;23671;38.090;-122.570;2023-03-25T02:04:47;4.22;;;1.00;;
37831;SDS011;23671;38.090;-122.570;2023-03-25T02:07:32;5.05;;;0.90;;
37831;SDS011;23671;38.090;-122.570;2023-03-25T02:10:02;4.95;;;1.00;;
37831;SDS011;23671;38.090;-122.570;2023-03-25T02:12:32;4.68;;;1.00;;
37831;SDS011;23671;38.090;-122.570;2023-03-25T02:15:00;2.80;;;1.10;;
37831;SDS011;23671;38.090;-122.570;2023-03-25T02:23:39;5.28;;;1.13;;
37831;SDS011;23671;38.090;-122.570;2023-03-25T02:28:57;4.55;;;1.52;;
37831;SDS011;23671;38.090;-122.570;2023-03-25T02:35:02;6.47;;;1.13;;
37831;SDS011;23671;38.090;-122.570;2023-03-25T02:37:41;5.07;;;1.15;;
37831;SDS011;23671;38.090;-122.570;2023-03-25T02:40:14;4.93;;;1.10;;
37831;SDS011;23671;38.090;-122.570;2023-03-25T02:42:58;5.35;;;1.25;;
37831;SDS011;23671;38.090;-122.570;2023-03-25T02:45:48;5.18;;;1.50;;
37831;SDS011;23671;38.090;-122.570;2023-03-25T02:48:23;7.00;;;1.65;;
37831;SDS011;23671;38.090;-122.570;2023-03-25T02:51:26;5.13;;;1.42;;
37831;SDS011;23671;38.090;-122.570;2023-03-25T02:54:03;4.57;;;1.02;;
37831;SDS011;23671;38.090;-122.570;2023-03-25T02:56:34;9.30;;;1.92;;
37831;SDS011;23671;38.090;-122.570;2023-03-25T02:59:05;7.75;;;1.77;;
37831;SDS011;23671;38.090;-122.570;2023-03-25T03:01:34;5.45;;;1.60;;
37831;SDS011;23671;38.090;-122.570;2023-03-25T03:04:01;6.88;;;2.00;;
37831;SDS011;23671;38.090;-122.570;2023-03-25T03:06:28;6.28;;;2.20;;
37831;SDS011;23671;38.090;-122.570;2023-03-25T03:09:20;4.72;;;1.70;;
37831;SDS011;23671;38.090;-122.570;2023-03-25T03:19:39;7.30;;;2.30;;
37831;SDS011;23671;38.090;-122.570;2023-03-25T03:25:17;5.07;;;1.80;;
37831;SDS011;23671;38.090;-122.570;2023-03-25T03:27:48;6.10;;;1.95;;
37831;SDS011;23671;38.090;-122.570;2023-03-25T03:30:24;7.70;;;1.90;;
37831;SDS011;23671;38.090;-122.570;2023-03-25T03:35:56;6.85;;;2.00;;
37831;SDS011;23671;38.090;-122.570;2023-03-25T03:38:40;12.35;;;2.42;;
37831;SDS011;23671;38.090;-122.570;2023-03-25T03:41:21;5.68;;;1.83;;
37831;SDS011;23671;38.090;-122.570;2023-03-25T03:44:01;8.32;;;1.80;;
37831;SDS011;23671;38.090;-122.570;2023-03-25T03:47:01;5.35;;;1.88;;
37831;SDS011;23671;38.090;-122.570;2023-03-25T03:49:42;5.57;;;2.42;;
37831;SDS011;23671;38.090;-122.570;2023-03-25T03:52:17;8.70;;;1.90;;
37831;SDS011;23671;38.090;-122.570;2023-03-25T03:55:31;6.65;;;1.98;;
37831;SDS011;23671;38.090;-122.570;2023-03-25T03:57:58;6.80;;;2.10;;
37831;SDS011;23671;38.090;-122.570;2023-03-25T04:01:31;6.30;;;1.80;;
37831;SDS011;23671;38.090;-122.570;2023-03-25T04:03:36;8.15;;;2.85;;
37831;SDS011;23671;38.090;-122.570;2023-03-25T04:06:23;5.20;;;1.95;;
37831;SDS011;23671;38.090;-122.570;2023-03-25T04:09:02;5.95;;;1.70;;
37831;SDS011;23671;38.090;-122.570;2023-03-25T04:11:43;8.35;;;1.80;;
37831;SDS011;23671;38.090;-122.570;2023-03-25T04:14:19;3.42;;;1.80;;
37831;SDS011;23671;38.090;-122.570;2023-03-25T04:16:46;7.68;;;2.15;;
37831;SDS011;23671;38.090;-122.570;2023-03-25T04:19:13;5.65;;;1.90;;
37831;SDS011;23671;38.090;-122.570;2023-03-25T04:21:44;3.38;;;1.60;;
37831;SDS011;23671;38.090;-122.570;2023-03-25T04:24:14;8.10;;;1.88;;
37831;SDS011;23671;38.090;-122.570;2023-03-25T04:29:11;4.75;;;1.80;;
37831;SDS011;23671;38.090;-122.570;2023-03-25T04:31:39;6.47;;;1.75;;
37831;SDS011;23671;38.090;-122.570;2023-03-25T04:34:13;5.90;;;1.63;;
37831;SDS011;23671;38.090;-122.570;2023-03-25T04:36:41;4.63;;;1.50;;
37831;SDS011;23671;38.090;-122.570;2023-03-25T04:39:08;5.80;;;1.77;;
37831;SDS011;23671;38.090;-122.570;2023-03-25T04:41:42;5.55;;;1.60;;
37831;SDS011;23671;38.090;-122.570;2023-03-25T04:44:09;7.93;;;2.10;;
37831;SDS011;23671;38.090;-122.570;2023-03-25T04:46:36;9.80;;;2.45;;
37831;SDS011;23671;38.090;-122.570;2023-03-25T04:49:04;5.03;;;1.77;;
37831;SDS011;23671;38.090;-122.570;2023-03-25T04:51:38;6.13;;;1.27;;
37831;SDS011;23671;38.090;-122.570;2023-03-25T04:54:09;4.97;;;2.15;;
37831;SDS011;23671;38.090;-122.570;2023-03-25T04:56:36;5.90;;;1.92;;
37831;SDS011;23671;38.090;-122.570;2023-03-25T04:59:04;4.75;;;1.15;;
37831;SDS011;23671;38.090;-122.570;2023-03-25T05:01:32;4.93;;;2.05;;
37831;SDS011;23671;38.090;-122.570;2023-03-25T05:04:07;6.05;;;1.80;;
37831;SDS011;23671;38.090;-122.570;2023-03-25T05:06:40;6.70;;;1.52;;
37831;SDS011;23671;38.090;-122.570;2023-03-25T05:09:11;6.25;;;1.77;;
37831;SDS011;23671;38.090;-122.570;2023-03-25T05:11:40;7.22;;;2.00;;
37831;SDS011;23671;38.090;-122.570;2023-03-25T05:14:08;9.95;;;1.75;;
37831;SDS011;23671;38.090;-122.570;2023-03-25T05:19:04;4.80;;;1.50;;
37831;SDS011;23671;38.090;-122.570;2023-03-25T05:21:36;5.85;;;1.77;;
37831;SDS011;23671;38.090;-122.570;2023-03-25T05:24:05;6.07;;;1.50;;
37831;SDS011;23671;38.090;-122.570;2023-03-25T05:26:36;6.55;;;1.80;;
37831;SDS011;23671;38.090;-122.570;2023-03-25T05:29:09;7.77;;;1.50;;
37831;SDS011;23671;38.090;-122.570;2023-03-25T05:31:38;6.85;;;2.10;;
37831;SDS011;23671;38.090;-122.570;2023-03-25T05:34:06;5.32;;;2.20;;
37831;SDS011;23671;38.090;-122.570;2023-03-25T05:36:33;3.72;;;1.25;;
37831;SDS011;23671;38.090;-122.570;2023-03-25T05:39:01;4.35;;;1.38;;
37831;SDS011;23671;38.090;-122.570;2023-03-25T05:41:30;5.33;;;1.60;;
37831;SDS011;23671;38.090;-122.570;2023-03-25T05:43:58;6.68;;;1.67;;
37831;SDS011;23671;38.090;-122.570;2023-03-25T05:46:25;5.47;;;1.70;;
37831;SDS011;23671;38.090;-122.570;2023-03-25T05:48:56;9.73;;;1.60;;
37831;SDS011;23671;38.090;-122.570;2023-03-25T05:51:25;5.80;;;1.55;;
37831;SDS011;23671;38.090;-122.570;2023-03-25T05:53:53;4.05;;;1.30;;
37831;SDS011;23671;38.090;-122.570;2023-03-25T05:56:21;4.85;;;1.20;;
37831;SDS011;23671;38.090;-122.570;2023-03-25T06:01:18;6.22;;;1.40;;
37831;SDS011;23671;38.090;-122.570;2023-03-25T06:03:45;7.17;;;1.80;;
37831;SDS011;23671;38.090;-122.570;2023-03-25T06:06:13;6.20;;;1.80;;
37831;SDS011;23671;38.090;-122.570;2023-03-25T06:08:46;8.93;;;1.70;;
37831;SDS011;23671;38.090;-122.570;2023-03-25T06:11:15;7.28;;;1.50;;
37831;SDS011;23671;38.090;-122.570;2023-03-25T06:13:43;8.50;;;1.80;;
37831;SDS011;23671;38.090;-122.570;2023-03-25T06:16:16;4.82;;;1.52;;
37831;SDS011;23671;38.090;-122.570;2023-03-25T06:18:48;5.00;;;1.40;;
37831;SDS011;23671;38.090;-122.570;2023-03-25T06:21:23;7.35;;;1.45;;
37831;SDS011;23671;38.090;-122.570;2023-03-25T06:23:51;5.97;;;1.35;;
37831;SDS011;23671;38.090;-122.570;2023-03-25T06:26:20;7.28;;;1.30;;
37831;SDS011;23671;38.090;-122.570;2023-03-25T06:28:47;4.28;;;1.20;;
37831;SDS011;23671;38.090;-122.570;2023-03-25T06:31:15;9.07;;;1.40;;
37831;SDS011;23671;38.090;-122.570;2023-03-25T06:33:50;4.10;;;1.35;;
37831;SDS011;23671;38.090;-122.570;2023-03-25T06:36:18;7.20;;;1.63;;
37831;SDS011;23671;38.090;-122.570;2023-03-25T06:38:45;7.10;;;1.23;;
37831;SDS011;23671;38.090;-122.570;2023-03-25T06:41:14;7.72;;;1.73;;
37831;SDS011;23671;38.090;-122.570;2023-03-25T06:43:45;4.72;;;1.33;;
37831;SDS011;23671;38.090;-122.570;2023-03-25T06:46:13;5.82;;;2.05;;
37831;SDS011;23671;38.090;-122.570;2023-03-25T06:48:40;6.50;;;1.42;;
37831;SDS011;23671;38.090;-122.570;2023-03-25T06:51:07;5.30;;;1.52;;
37831;SDS011;23671;38.090;-122.570;2023-03-25T06:53:34;6.70;;;1.33;;
37831;SDS011;23671;38.090;-122.570;2023-03-25T06:56:01;6.25;;;1.50;;
37831;SDS011;23671;38.090;-122.570;2023-03-25T06:58:29;3.42;;;1.10;;
37831;SDS011;23671;38.090;-122.570;2023-03-25T07:00:59;5.78;;;1.60;;
37831;SDS011;23671;38.090;-122.570;2023-03-25T07:03:31;6.38;;;1.83;;
37831;SDS011;23671;38.090;-122.570;2023-03-25T07:05:58;7.00;;;1.63;;
37831;SDS011;23671;38.090;-122.570;2023-03-25T07:08:26;5.00;;;1.33;;
37831;SDS011;23671;38.090;-122.570;2023-03-25T07:10:53;6.13;;;2.05;;
37831;SDS011;23671;38.090;-122.570;2023-03-25T07:13:25;4.78;;;1.55;;
37831;SDS011;23671;38.090;-122.570;2023-03-25T07:15:56;4.18;;;1.27;;
37831;SDS011;23671;38.090;-122.570;2023-03-25T07:18:27;3.60;;;1.23;;
37831;SDS011;23671;38.090;-122.570;2023-03-25T07:20:54;4.88;;;1.30;;
37831;SDS011;23671;38.090;-122.570;2023-03-25T07:23:21;6.60;;;1.52;;
37831;SDS011;23671;38.090;-122.570;2023-03-25T07:25:48;6.90;;;1.30;;
37831;SDS011;23671;38.090;-122.570;2023-03-25T07:28:15;4.95;;;1.27;;
37831;SDS011;23671;38.090;-122.570;2023-03-25T07:30:42;8.50;;;1.10;;
37831;SDS011;23671;38.090;-122.570;2023-03-25T07:33:09;6.78;;;1.58;;
37831;SDS011;23671;38.090;-122.570;2023-03-25T07:35:36;6.18;;;1.30;;
37831;SDS011;23671;38.090;-122.570;2023-03-25T07:38:04;5.93;;;1.08;;
37831;SDS011;23671;38.090;-122.570;2023-03-25T07:40:31;4.70;;;1.23;;
37831;SDS011;23671;38.090;-122.570;2023-03-25T07:42:58;6.68;;;1.60;;
37831;SDS011;23671;38.090;-122.570;2023-03-25T07:45:25;3.67;;;1.40;;
37831;SDS011;23671;38.090;-122.570;2023-03-25T07:47:52;6.60;;;1.13;;
37831;SDS011;23671;38.090;-122.570;2023-03-25T07:50:20;4.28;;;1.13;;
37831;SDS011;23671;38.090;-122.570;2023-03-25T07:52:48;4.57;;;1.00;;
37831;SDS011;23671;38.090;-122.570;2023-03-25T07:55:15;4.60;;;1.00;;
37831;SDS011;23671;38.090;-122.570;2023-03-25T07:57:42;7.10;;;1.30;;
37831;SDS011;23671;38.090;-122.570;2023-03-25T08:00:13;4.75;;;1.08;;
37831;SDS011;23671;38.090;-122.570;2023-03-25T08:02:40;5.47;;;1.40;;
37831;SDS011;23671;38.090;-122.570;2023-03-25T08:05:07;3.00;;;1.02;;
37831;SDS011;23671;38.090;-122.570;2023-03-25T08:07:34;5.53;;;1.20;;
37831;SDS011;23671;38.090;-122.570;2023-03-25T08:10:02;5.70;;;1.50;;
37831;SDS011;23671;38.090;-122.570;2023-03-25T08:12:29;2.97;;;0.80;;
37831;SDS011;23671;38.090;-122.570;2023-03-25T08:14:56;4.80;;;1.05;;
37831;SDS011;23671;38.090;-122.570;2023-03-25T08:17:24;5.95;;;1.42;;
37831;SDS011;23671;38.090;-122.570;2023-03-25T08:19:51;4.53;;;1.00;;
37831;SDS011;23671;38.090;-122.570;2023-03-25T08:22:18;3.20;;;0.95;;
37831;SDS011;23671;38.090;-122.570;2023-03-25T08:24:45;3.83;;;0.93;;
37831;SDS011;23671;38.090;-122.570;2023-03-25T08:27:12;6.28;;;1.00;;
37831;SDS011;23671;38.090;-122.570;2023-03-25T08:29:39;2.42;;;0.95;;
37831;SDS011;23671;38.090;-122.570;2023-03-25T08:32:06;4.65;;;1.20;;
37831;SDS011;23671;38.090;-122.570;2023-03-25T08:34:33;3.03;;;1.05;;
37831;SDS011;23671;38.090;-122.570;2023-03-25T08:37:04;3.10;;;1.10;;
37831;SDS011;23671;38.090;-122.570;2023-03-25T08:39:35;4.50;;;1.20;;
37831;SDS011;23671;38.090;-122.570;2023-03-25T08:42:07;6.90;;;1.20;;
37831;SDS011;23671;38.090;-122.570;2023-03-25T08:44:34;2.83;;;1.10;;
37831;SDS011;23671;38.090;-122.570;2023-03-25T08:47:01;5.60;;;1.00;;
37831;SDS011;23671;38.090;-122.570;2023-03-25T08:49:28;4.25;;;1.10;;
37831;SDS011;23671;38.090;-122.570;2023-03-25T08:51:56;3.03;;;0.93;;
37831;SDS011;23671;38.090;-122.570;2023-03-25T08:54:24;3.13;;;0.73;;
37831;SDS011;23671;38.090;-122.570;2023-03-25T08:56:52;2.33;;;0.80;;
37831;SDS011;23671;38.090;-122.570;2023-03-25T08:59:19;3.78;;;0.93;;
37831;SDS011;23671;38.090;-122.570;2023-03-25T09:01:46;2.42;;;0.95;;
37831;SDS011;23671;38.090;-122.570;2023-03-25T09:04:15;3.90;;;1.20;;
37831;SDS011;23671;38.090;-122.570;2023-03-25T09:06:42;4.00;;;1.00;;
37831;SDS011;23671;38.090;-122.570;2023-03-25T09:09:10;4.90;;;1.30;;
37831;SDS011;23671;38.090;-122.570;2023-03-25T09:11:37;5.03;;;1.10;;
37831;SDS011;23671;38.090;-122.570;2023-03-25T09:14:04;3.25;;;1.00;;
37831;SDS011;23671;38.090;-122.570;2023-03-25T09:16:31;2.97;;;1.27;;
37831;SDS011;23671;38.090;-122.570;2023-03-25T09:18:58;4.68;;;1.00;;
37831;SDS011;23671;38.090;-122.570;2023-03-25T09:21:26;5.18;;;1.10;;
37831;SDS011;23671;38.090;-122.570;2023-03-25T09:23:53;3.53;;;0.95;;
37831;SDS011;23671;38.090;-122.570;2023-03-25T09:26:20;4.38;;;0.95;;
37831;SDS011;23671;38.090;-122.570;2023-03-25T09:28:48;2.88;;;0.77;;
37831;SDS011;23671;38.090;-122.570;2023-03-25T09:31:15;4.45;;;1.05;;
37831;SDS011;23671;38.090;-122.570;2023-03-25T09:33:42;2.72;;;0.90;;
37831;SDS011;23671;38.090;-122.570;2023-03-25T09:36:09;4.13;;;1.02;;
37831;SDS011;23671;38.090;-122.570;2023-03-25T09:38:37;3.20;;;0.88;;
37831;SDS011;23671;38.090;-122.570;2023-03-25T09:41:15;2.78;;;0.85;;
37831;SDS011;23671;38.090;-122.570;2023-03-25T09:46:35;1.20;;;0.93;;
37831;SDS011;23671;38.090;-122.570;2023-03-25T09:49:04;1.58;;;0.88;;
37831;SDS011;23671;38.090;-122.570;2023-03-25T09:51:58;2.80;;;0.70;;
37831;SDS011;23671;38.090;-122.570;2023-03-25T09:54:30;3.28;;;0.98;;
37831;SDS011;23671;38.090;-122.570;2023-03-25T09:57:04;4.55;;;0.85;;
37831;SDS011;23671;38.090;-122.570;2023-03-25T10:02:17;3.25;;;0.80;;
37831;SDS011;23671;38.090;-122.570;2023-03-25T10:04:58;1.42;;;0.60;;
37831;SDS011;23671;38.090;-122.570;2023-03-25T10:07:37;3.30;;;0.95;;
37831;SDS011;23671;38.090;-122.570;2023-03-25T10:10:26;2.30;;;0.77;;
37831;SDS011;23671;38.090;-122.570;2023-03-25T10:21:52;1.67;;;0.73;;
37831;SDS011;23671;38.090;-122.570;2023-03-25T10:24:55;3.83;;;1.52;;
37831;SDS011;23671;38.090;-122.570;2023-03-25T10:27:36;3.80;;;0.82;;
37831;SDS011;23671;38.090;-122.570;2023-03-25T10:33:01;1.95;;;0.90;;
37831;SDS011;23671;38.090;-122.570;2023-03-25T10:35:33;4.45;;;0.80;;
37831;SDS011;23671;38.090;-122.570;2023-03-25T10:40:54;1.88;;;0.77;;
37831;SDS011;23671;38.090;-122.570;2023-03-25T10:43:55;4.57;;;1.10;;
37831;SDS011;23671;38.090;-122.570;2023-03-25T10:46:56;1.77;;;0.70;;
37831;SDS011;23671;38.090;-122.570;2023-03-25T10:51:50;2.83;;;0.60;;
37831;SDS011;23671;38.090;-122.570;2023-03-25T10:54:18;1.17;;;0.90;;
37831;SDS011;23671;38.090;-122.570;2023-03-25T10:56:51;3.45;;;0.95;;
37831;SDS011;23671;38.090;-122.570;2023-03-25T11:02:18;5.10;;;1.10;;
37831;SDS011;23671;38.090;-122.570;2023-03-25T11:04:48;2.03;;;0.90;;
37831;SDS011;23671;38.090;-122.570;2023-03-25T11:07:22;0.98;;;0.70;;
37831;SDS011;23671;38.090;-122.570;2023-03-25T11:10:08;2.08;;;0.80;;
37831;SDS011;23671;38.090;-122.570;2023-03-25T11:12:49;1.20;;;0.55;;
37831;SDS011;23671;38.090;-122.570;2023-03-25T11:15:18;2.47;;;0.73;;
37831;SDS011;23671;38.090;-122.570;2023-03-25T11:18:01;4.13;;;0.98;;
37831;SDS011;23671;38.090;-122.570;2023-03-25T11:20:39;2.83;;;0.70;;
37831;SDS011;23671;38.090;-122.570;2023-03-25T11:26:27;2.42;;;0.80;;
37831;SDS011;23671;38.090;-122.570;2023-03-25T11:29:00;1.10;;;0.93;;
37831;SDS011;23671;38.090;-122.570;2023-03-25T11:31:35;2.10;;;0.82;;
37831;SDS011;23671;38.090;-122.570;2023-03-25T11:36:46;2.03;;;0.80;;
37831;SDS011;23671;38.090;-122.570;2023-03-25T11:39:32;3.28;;;0.73;;
37831;SDS011;23671;38.090;-122.570;2023-03-25T11:42:13;1.85;;;0.60;;
37831;SDS011;23671;38.090;-122.570;2023-03-25T11:44:53;2.42;;;0.70;;
37831;SDS011;23671;38.090;-122.570;2023-03-25T11:47:37;2.15;;;0.90;;
37831;SDS011;23671;38.090;-122.570;2023-03-25T11:50:05;2.58;;;0.80;;
37831;SDS011;23671;38.090;-122.570;2023-03-25T11:52:44;3.17;;;0.80;;
37831;SDS011;23671;38.090;-122.570;2023-03-25T11:55:21;2.72;;;0.85;;
37831;SDS011;23671;38.090;-122.570;2023-03-25T11:57:54;2.40;;;0.70;;
37831;SDS011;23671;38.090;-122.570;2023-03-25T12:00:31;3.10;;;0.70;;
37831;SDS011;23671;38.090;-122.570;2023-03-25T12:03:04;2.25;;;0.65;;
37831;SDS011;23671;38.090;-122.570;2023-03-25T12:05:31;3.13;;;0.80;;
37831;SDS011;23671;38.090;-122.570;2023-03-25T12:08:17;3.05;;;0.52;;
37831;SDS011;23671;38.090;-122.570;2023-03-25T12:10:52;1.92;;;1.13;;
37831;SDS011;23671;38.090;-122.570;2023-03-25T12:29:37;2.05;;;0.88;;
37831;SDS011;23671;38.090;-122.570;2023-03-25T12:37:29;1.70;;;0.68;;
37831;SDS011;23671;38.090;-122.570;2023-03-25T12:49:19;1.27;;;0.60;;
37831;SDS011;23671;38.090;-122.570;2023-03-25T12:52:24;3.70;;;0.73;;
37831;SDS011;23671;38.090;-122.570;2023-03-25T12:54:57;2.55;;;1.10;;
37831;SDS011;23671;38.090;-122.570;2023-03-25T12:57:41;1.10;;;0.68;;
37831;SDS011;23671;38.090;-122.570;2023-03-25T13:03:09;1.48;;;0.50;;
37831;SDS011;23671;38.090;-122.570;2023-03-25T13:06:05;1.15;;;0.60;;
37831;SDS011;23671;38.090;-122.570;2023-03-25T13:08:55;1.30;;;0.68;;
37831;SDS011;23671;38.090;-122.570;2023-03-25T13:14:31;1.73;;;0.63;;
37831;SDS011;23671;38.090;-122.570;2023-03-25T13:17:07;2.13;;;0.60;;
37831;SDS011;23671;38.090;-122.570;2023-03-25T13:19:40;1.13;;;0.50;;
37831;SDS011;23671;38.090;-122.570;2023-03-25T13:22:20;1.00;;;0.60;;
37831;SDS011;23671;38.090;-122.570;2023-03-25T13:24:56;1.73;;;0.50;;
37831;SDS011;23671;38.090;-122.570;2023-03-25T13:27:34;2.08;;;0.70;;
37831;SDS011;23671;38.090;-122.570;2023-03-25T13:30:06;1.42;;;0.55;;
37831;SDS011;23671;38.090;-122.570;2023-03-25T13:33:15;1.73;;;0.55;;
37831;SDS011;23671;38.090;-122.570;2023-03-25T13:35:52;1.30;;;0.55;;
37831;SDS011;23671;38.090;-122.570;2023-03-25T13:38:45;5.20;;;0.88;;
37831;SDS011;23671;38.090;-122.570;2023-03-25T13:46:26;2.42;;;0.50;;
37831;SDS011;23671;38.090;-122.570;2023-03-25T13:51:57;2.03;;;0.50;;
37831;SDS011;23671;38.090;-122.570;2023-03-25T13:54:27;1.13;;;0.45;;
37831;SDS011;23671;38.090;-122.570;2023-03-25T14:13:53;1.13;;;0.40;;
37831;SDS011;23671;38.090;-122.570;2023-03-25T14:16:35;1.77;;;0.43;;
37831;SDS011;23671;38.090;-122.570;2023-03-25T14:19:10;1.27;;;0.43;;
37831;SDS011;23671;38.090;-122.570;2023-03-25T14:21:42;0.70;;;0.40;;
37831;SDS011;23671;38.090;-122.570;2023-03-25T14:24:46;1.60;;;0.40;;
37831;SDS011;23671;38.090;-122.570;2023-03-25T14:27:11;2.13;;;0.50;;
37831;SDS011;23671;38.090;-122.570;2023-03-25T14:34:47;1.63;;;0.60;;
37831;SDS011;23671;38.090;-122.570;2023-03-25T14:39:54;4.15;;;0.57;;
37831;SDS011;23671;38.090;-122.570;2023-03-25T14:42:55;3.22;;;0.63;;
37831;SDS011;23671;38.090;-122.570;2023-03-25T14:48:00;2.30;;;0.50;;
37831;SDS011;23671;38.090;-122.570;2023-03-25T14:50:31;1.25;;;0.50;;
37831;SDS011;23671;38.090;-122.570;2023-03-25T14:53:03;1.02;;;0.38;;
37831;SDS011;23671;38.090;-122.570;2023-03-25T14:55:45;1.15;;;0.63;;
37831;SDS011;23671;38.090;-122.570;2023-03-25T15:01:08;1.27;;;0.60;;
37831;SDS011;23671;38.090;-122.570;2023-03-25T15:03:40;2.28;;;0.90;;
37831;SDS011;23671;38.090;-122.570;2023-03-25T15:08:39;3.08;;;0.50;;
37831;SDS011;23671;38.090;-122.570;2023-03-25T15:11:24;2.05;;;0.40;;
37831;SDS011;23671;38.090;-122.570;2023-03-25T15:13:58;2.65;;;0.70;;
37831;SDS011;23671;38.090;-122.570;2023-03-25T15:19:17;0.90;;;0.40;;
37831;SDS011;23671;38.090;-122.570;2023-03-25T15:24:29;1.60;;;0.65;;
37831;SDS011;23671;38.090;-122.570;2023-03-25T15:27:53;1.70;;;0.50;;
37831;SDS011;23671;38.090;-122.570;2023-03-25T15:32:35;1.92;;;0.50;;
37831;SDS011;23671;38.090;-122.570;2023-03-25T16:00:13;1.77;;;0.50;;
37831;SDS011;23671;38.090;-122.570;2023-03-25T16:02:57;1.75;;;0.45;;
37831;SDS011;23671;38.090;-122.570;2023-03-25T16:05:31;0.30;;;0.30;;
37831;SDS011;23671;38.090;-122.570;2023-03-25T16:08:07;2.15;;;0.60;;
37831;SDS011;23671;38.090;-122.570;2023-03-25T16:10:40;0.30;;;0.20;;
37831;SDS011;23671;38.090;-122.570;2023-03-25T16:13:11;0.22;;;0.22;;
37831;SDS011;23671;38.090;-122.570;2023-03-25T16:15:48;0.50;;;0.20;;
37831;SDS011;23671;38.090;-122.570;2023-03-25T16:18:21;1.65;;;0.40;;
37831;SDS011;23671;38.090;-122.570;2023-03-25T16:20:56;0.47;;;0.20;;
37831;SDS011;23671;38.090;-122.570;2023-03-25T16:23:27;1.70;;;0.52;;
37831;SDS011;23671;38.090;-122.570;2023-03-25T16:25:55;1.30;;;0.30;;
37831;SDS011;23671;38.090;-122.570;2023-03-25T16:28:39;1.30;;;0.45;;
37831;SDS011;23671;38.090;-122.570;2023-03-25T16:31:31;1.25;;;0.30;;
37831;SDS011;23671;38.090;-122.570;2023-03-25T16:34:00;3.40;;;0.20;;
37831;SDS011;23671;38.090;-122.570;2023-03-25T16:36:31;3.25;;;0.55;;
37831;SDS011;23671;38.090;-122.570;2023-03-25T16:38:59;0.75;;;0.40;;
37831;SDS011;23671;38.090;-122.570;2023-03-25T16:41:26;3.53;;;0.60;;
37831;SDS011;23671;38.090;-122.570;2023-03-25T16:43:55;0.50;;;0.30;;
37831;SDS011;23671;38.090;-122.570;2023-03-25T16:46:22;1.25;;;0.45;;
37831;SDS011;23671;38.090;-122.570;2023-03-25T16:48:51;1.17;;;0.50;;
37831;SDS011;23671;38.090;-122.570;2023-03-25T16:51:28;0.30;;;0.30;;
37831;SDS011;23671;38.090;-122.570;2023-03-25T16:54:00;1.73;;;0.43;;
37831;SDS011;23671;38.090;-122.570;2023-03-25T16:56:37;0.90;;;0.40;;
37831;SDS011;23671;38.090;-122.570;2023-03-25T16:59:05;1.77;;;0.38;;
37831;SDS011;23671;38.090;-122.570;2023-03-25T17:01:53;0.95;;;0.40;;
37831;SDS011;23671;38.090;-122.570;2023-03-25T17:04:23;2.45;;;0.55;;
37831;SDS011;23671;38.090;-122.570;2023-03-25T17:09:21;2.80;;;0.40;;
37831;SDS011;23671;38.090;-122.570;2023-03-25T17:11:58;1.08;;;0.52;;
37831;SDS011;23671;38.090;-122.570;2023-03-25T17:14:29;2.22;;;1.08;;
37831;SDS011;23671;38.090;-122.570;2023-03-25T17:17:44;2.17;;;0.95;;
37831;SDS011;23671;38.090;-122.570;2023-03-25T17:20:12;2.55;;;0.50;;
37831;SDS011;23671;38.090;-122.570;2023-03-25T17:23:06;1.17;;;0.43;;
37831;SDS011;23671;38.090;-122.570;2023-03-25T17:25:58;2.60;;;0.40;;
37831;SDS011;23671;38.090;-122.570;2023-03-25T17:34:13;1.45;;;0.73;;
37831;SDS011;23671;38.090;-122.570;2023-03-25T17:36:50;0.93;;;0.50;;
37831;SDS011;23671;38.090;-122.570;2023-03-25T17:39:24;0.68;;;0.40;;
37831;SDS011;23671;38.090;-122.570;2023-03-25T17:41:57;1.83;;;0.50;;
37831;SDS011;23671;38.090;-122.570;2023-03-25T17:44:30;1.17;;;0.35;;
37831;SDS011;23671;38.090;-122.570;2023-03-25T17:47:01;1.73;;;0.77;;